Time;durP1;ratioP1;P1;durP2;ratioP2;P2;SDS_P1;SDS_P2;PMS_P1;PMS_P2;Temp;Humidity;BMP_temperature;BMP_pressure;BME280_temperature;BME280_humidity;BME280_pressure;Samples;Min_cycle;Max_cycle;Signal;HPM_P1;HPM_P2
2022/11/26 00:02:27;;;;;;;4.78;2.17;;;5.80;98.90;;;;;;5054404;28;20550;-71
2022/11/26 00:04:54;;;;;;;5.15;2.38;;;5.90;98.10;;;;;;5055495;28;20351;-71
2022/11/26 00:07:25;;;;;;;5.13;2.70;;;5.90;98.70;;;;;;5062639;28;20024;-71
2022/11/26 00:09:51;;;;;;;3.83;1.73;;;6.00;97.70;;;;;;5053455;28;20467;-71
2022/11/26 00:12:23;;;;;;;3.75;1.95;;;6.00;98.10;;;;;;5056224;28;20117;-71
2022/11/26 00:14:49;;;;;;;6.43;2.58;;;5.80;99.30;;;;;;5055085;28;20079;-71
2022/11/26 00:17:15;;;;;;;4.85;1.77;;;5.60;99.90;;;;;;5052526;28;20049;-71
2022/11/26 00:19:43;;;;;;;7.70;2.40;;;5.40;99.90;;;;;;5061556;28;20059;-71
2022/11/26 00:22:34;;;;;;;5.97;1.80;;;5.40;99.90;;;;;;5057624;28;20033;-71
2022/11/26 00:25:00;;;;;;;4.38;2.13;;;5.30;99.90;;;;;;5054174;28;20028;-70
2022/11/26 00:27:26;;;;;;;6.00;2.05;;;5.40;99.80;;;;;;5059060;28;20108;-71
2022/11/26 00:29:53;;;;;;;4.50;2.05;;;5.40;99.70;;;;;;5068299;28;20028;-71
2022/11/26 00:32:22;;;;;;;4.18;2.20;;;5.70;98.30;;;;;;5053880;28;20411;-71
2022/11/26 00:34:48;;;;;;;5.55;2.35;;;5.80;97.70;;;;;;5061300;28;20028;-70
2022/11/26 00:37:27;;;;;;;4.78;2.60;;;5.80;97.70;;;;;;5057387;28;20042;-70
2022/11/26 00:39:54;;;;;;;7.40;2.40;;;5.70;97.60;;;;;;5056907;28;20120;-71
2022/11/26 00:42:20;;;;;;;4.32;2.10;;;5.70;97.80;;;;;;5057109;28;20082;-71
2022/11/26 00:44:47;;;;;;;3.67;2.00;;;5.60;97.80;;;;;;5059080;28;20029;-70
2022/11/26 00:47:12;;;;;;;9.82;2.45;;;5.50;97.80;;;;;;5055302;28;20119;-70
2022/11/26 00:49:38;;;;;;;4.20;2.22;;;5.50;98.20;;;;;;5057996;28;20107;-71
2022/11/26 00:52:19;;;;;;;3.88;2.47;;;5.40;98.30;;;;;;5060890;28;20124;-71
2022/11/26 00:54:45;;;;;;;7.10;2.50;;;5.40;98.60;;;;;;5059273;28;20028;-71
2022/11/26 00:57:10;;;;;;;4.57;2.35;;;5.30;99.00;;;;;;5055020;28;20493;-71
2022/11/26 00:59:36;;;;;;;5.10;2.38;;;5.30;99.00;;;;;;5059728;28;20036;-70
2022/11/26 01:02:01;;;;;;;3.70;1.70;;;5.30;99.20;;;;;;5056053;28;20036;-70
2022/11/26 01:04:27;;;;;;;4.25;2.15;;;5.30;98.30;;;;;;5059847;28;20037;-71
2022/11/26 01:06:53;;;;;;;4.65;2.33;;;5.30;99.30;;;;;;5065928;28;20060;-71
2022/11/26 01:09:20;;;;;;;5.75;2.17;;;5.40;98.50;;;;;;5061359;28;20371;-70
2022/11/26 01:11:47;;;;;;;10.13;2.50;;;5.60;97.70;;;;;;5068531;28;20032;-71
2022/11/26 01:14:15;;;;;;;5.57;1.98;;;5.60;98.00;;;;;;5068745;28;20037;-71
2022/11/26 01:16:43;;;;;;;7.03;2.20;;;5.60;97.70;;;;;;5057993;28;20056;-71
2022/11/26 01:19:11;;;;;;;5.07;2.33;;;5.80;97.20;;;;;;5068509;28;20045;-71
2022/11/26 01:21:38;;;;;;;12.20;2.10;;;5.70;98.10;;;;;;5059498;28;20037;-71
2022/11/26 01:24:04;;;;;;;4.22;1.88;;;5.70;97.60;;;;;;5064659;28;20033;-70
2022/11/26 01:26:37;;;;;;;11.65;2.25;;;5.50;98.20;;;;;;5058465;28;20028;-71
2022/11/26 01:29:02;;;;;;;5.82;2.00;;;5.50;97.90;;;;;;5068341;28;20021;-71
2022/11/26 01:31:28;;;;;;;4.20;1.77;;;5.50;97.60;;;;;;5052738;28;20031;-71
2022/11/26 01:33:55;;;;;;;4.13;2.75;;;5.50;97.50;;;;;;5061668;28;20087;-71
2022/11/26 01:36:24;;;;;;;6.25;2.20;;;5.40;98.10;;;;;;5063562;28;20122;-70
2022/11/26 01:39:17;;;;;;;4.97;2.10;;;5.60;97.30;;;;;;5041626;28;20033;-71
2022/11/26 01:42:04;;;;;;;3.25;1.60;;;5.30;98.20;;;;;;5061747;28;20043;-70
2022/11/26 01:44:33;;;;;;;4.93;2.00;;;5.30;98.00;;;;;;5065336;28;20037;-70
2022/11/26 01:47:00;;;;;;;4.30;2.00;;;5.60;97.30;;;;;;5063988;28;20105;-71
2022/11/26 01:49:30;;;;;;;5.07;1.85;;;5.40;98.30;;;;;;5064327;28;20105;-71
2022/11/26 01:52:08;;;;;;;3.03;1.42;;;5.10;98.70;;;;;;5059580;28;20025;-71
2022/11/26 01:54:36;;;;;;;3.83;1.75;;;5.10;98.20;;;;;;5056861;28;20037;-71
2022/11/26 01:57:29;;;;;;;3.63;1.55;;;5.50;97.40;;;;;;5056116;28;20029;-71
2022/11/26 02:00:00;;;;;;;3.42;1.60;;;5.60;97.60;;;;;;5057434;28;20061;-71
2022/11/26 02:02:28;;;;;;;3.83;1.33;;;5.70;97.10;;;;;;5060589;28;20494;-71
2022/11/26 02:05:04;;;;;;;4.03;1.67;;;5.70;97.00;;;;;;5054953;28;20029;-70
2022/11/26 02:07:30;;;;;;;4.88;2.08;;;5.70;97.00;;;;;;5062677;28;20368;-71
2022/11/26 02:09:56;;;;;;;4.80;1.90;;;5.80;96.60;;;;;;5061514;28;20032;-71
2022/11/26 02:12:22;;;;;;;3.70;1.52;;;5.80;96.90;;;;;;5052250;28;20439;-71
2022/11/26 02:14:48;;;;;;;3.80;1.77;;;5.90;96.50;;;;;;5055161;28;20029;-71
2022/11/26 02:17:18;;;;;;;4.93;2.03;;;5.90;96.40;;;;;;5059076;28;20513;-71
2022/11/26 02:20:18;;;;;;;6.82;1.90;;;5.90;96.50;;;;;;5066058;28;20072;-71
2022/11/26 02:22:46;;;;;;;3.80;1.65;;;5.80;96.70;;;;;;5057302;28;20078;-71
2022/11/26 02:25:20;;;;;;;5.32;2.03;;;5.90;96.60;;;;;;5062061;28;20059;-71
2022/11/26 02:28:20;;;;;;;2.90;1.80;;;6.00;96.30;;;;;;5063731;28;20028;-71
2022/11/26 02:30:51;;;;;;;6.93;1.50;;;6.10;95.90;;;;;;5061494;28;20024;-70
2022/11/26 02:33:23;;;;;;;5.03;2.00;;;6.20;95.70;;;;;;5060490;28;20024;-70
2022/11/26 02:35:59;;;;;;;3.92;1.73;;;6.10;95.80;;;;;;5054776;28;20475;-70
2022/11/26 02:38:31;;;;;;;5.43;1.52;;;6.20;95.90;;;;;;5068623;28;20870;-71
2022/11/26 02:40:57;;;;;;;6.18;2.17;;;6.20;95.60;;;;;;5066943;28;20028;-71
2022/11/26 02:43:24;;;;;;;5.35;1.65;;;6.10;95.90;;;;;;5056872;28;20031;-71
2022/11/26 02:45:55;;;;;;;4.45;1.58;;;6.20;95.70;;;;;;5058792;28;20138;-71
2022/11/26 02:48:24;;;;;;;2.88;1.35;;;6.10;95.90;;;;;;5061842;28;20033;-71
2022/11/26 02:50:59;;;;;;;3.47;1.42;;;6.20;95.50;;;;;;5058390;28;20367;-70
2022/11/26 02:53:27;;;;;;;5.20;1.30;;;6.20;95.70;;;;;;5057798;28;20115;-71
2022/11/26 02:56:04;;;;;;;4.03;1.45;;;6.10;95.90;;;;;;5068231;28;20025;-71
2022/11/26 02:58:30;;;;;;;5.45;1.63;;;6.10;95.60;;;;;;5059784;28;20089;-71
2022/11/26 03:00:58;;;;;;;4.10;1.70;;;6.10;95.60;;;;;;5061138;28;20036;-71
2022/11/26 03:03:31;;;;;;;6.93;1.80;;;6.10;95.50;;;;;;5049387;28;20094;-71
2022/11/26 03:06:02;;;;;;;3.63;1.50;;;6.10;95.60;;;;;;5064056;28;20035;-71
2022/11/26 03:08:29;;;;;;;4.40;1.33;;;6.20;95.40;;;;;;5060668;28;20052;-71
2022/11/26 03:10:55;;;;;;;5.50;1.98;;;6.20;95.50;;;;;;5060587;28;20040;-70
2022/11/26 03:13:21;;;;;;;4.07;1.60;;;6.20;95.50;;;;;;5060704;28;20033;-70
2022/11/26 03:15:46;;;;;;;4.35;1.63;;;6.20;95.70;;;;;;5065001;28;20048;-71
2022/11/26 03:18:12;;;;;;;3.95;1.52;;;5.80;96.50;;;;;;5051879;28;20082;-71
2022/11/26 03:20:38;;;;;;;5.45;1.33;;;5.80;96.30;;;;;;5061018;28;20064;-71
2022/11/26 03:23:03;;;;;;;4.28;1.60;;;5.90;96.20;;;;;;5064082;28;20028;-70
2022/11/26 03:25:29;;;;;;;5.38;1.50;;;6.00;96.00;;;;;;5056993;28;20078;-71
2022/11/26 03:27:55;;;;;;;2.67;1.38;;;6.00;95.80;;;;;;5058021;28;20032;-70
2022/11/26 03:30:21;;;;;;;4.13;1.85;;;6.00;96.20;;;;;;5059226;28;20090;-71
2022/11/26 03:32:46;;;;;;;6.13;1.65;;;5.90;96.10;;;;;;5054435;28;20032;-71
2022/11/26 03:35:12;;;;;;;5.28;1.95;;;6.10;95.60;;;;;;5058383;28;20064;-71
2022/11/26 03:37:38;;;;;;;2.67;1.17;;;6.10;95.50;;;;;;5056704;28;20426;-70
2022/11/26 03:40:05;;;;;;;3.45;1.40;;;6.20;95.40;;;;;;5063357;28;20489;-70
2022/11/26 03:42:31;;;;;;;5.25;1.50;;;6.20;95.30;;;;;;5063028;28;20432;-70
2022/11/26 03:44:56;;;;;;;5.75;1.80;;;6.10;95.60;;;;;;5058603;28;20036;-70
2022/11/26 03:47:22;;;;;;;3.40;1.40;;;6.10;95.60;;;;;;5058701;28;20454;-71
2022/11/26 03:49:48;;;;;;;4.47;2.20;;;6.10;95.60;;;;;;5056240;28;20029;-71
2022/11/26 03:52:13;;;;;;;3.50;1.20;;;6.10;95.50;;;;;;5054846;28;20071;-71
2022/11/26 03:54:39;;;;;;;3.35;1.40;;;6.10;95.70;;;;;;5058339;28;20100;-71
2022/11/26 03:57:05;;;;;;;2.92;1.40;;;6.10;95.80;;;;;;5057919;28;20036;-71
2022/11/26 03:59:30;;;;;;;3.17;1.27;;;6.00;96.10;;;;;;5058068;28;20041;-71
2022/11/26 04:01:56;;;;;;;6.70;1.55;;;6.00;95.80;;;;;;5064970;28;20029;-69
2022/11/26 04:04:22;;;;;;;4.80;1.88;;;6.00;95.90;;;;;;5049571;28;20043;-69
2022/11/26 04:06:47;;;;;;;3.85;1.50;;;6.20;95.50;;;;;;5053907;28;20495;-69
2022/11/26 04:09:13;;;;;;;4.05;1.42;;;6.20;95.50;;;;;;5047207;28;20116;-69
2022/11/26 04:11:39;;;;;;;1.63;0.90;;;6.10;95.50;;;;;;5056779;28;20387;-69
2022/11/26 04:14:04;;;;;;;3.60;1.70;;;5.90;96.00;;;;;;5049337;28;20072;-69
2022/11/26 04:16:30;;;;;;;4.03;1.83;;;5.50;96.90;;;;;;5057776;28;20135;-69
2022/11/26 04:18:56;;;;;;;2.80;1.13;;;5.70;96.30;;;;;;5047782;28;20461;-69
2022/11/26 04:21:21;;;;;;;3.95;1.70;;;6.00;95.80;;;;;;5048904;28;20036;-70
2022/11/26 04:23:47;;;;;;;2.75;1.30;;;5.90;96.70;;;;;;5049026;28;20029;-69
2022/11/26 04:26:12;;;;;;;4.13;1.10;;;6.20;95.50;;;;;;5058502;28;20028;-69
2022/11/26 04:28:38;;;;;;;4.15;1.63;;;6.20;95.70;;;;;;5055349;28;20037;-69
2022/11/26 04:31:04;;;;;;;3.42;0.80;;;6.10;95.80;;;;;;5058312;28;20380;-69
2022/11/26 04:33:30;;;;;;;1.95;0.98;;;6.00;95.90;;;;;;5058856;28;20032;-69
2022/11/26 04:35:56;;;;;;;3.50;1.50;;;5.90;96.30;;;;;;5056279;28;20104;-69
2022/11/26 04:38:22;;;;;;;8.30;1.23;;;6.00;96.20;;;;;;5057069;28;20040;-69
2022/11/26 04:40:47;;;;;;;2.58;1.15;;;6.10;95.90;;;;;;5058050;28;20052;-70
2022/11/26 04:43:13;;;;;;;3.42;1.17;;;5.70;96.90;;;;;;5062943;28;20079;-69
2022/11/26 04:45:39;;;;;;;1.75;0.95;;;5.90;96.20;;;;;;5055913;28;20430;-69
2022/11/26 04:48:05;;;;;;;2.70;1.02;;;6.10;96.00;;;;;;5059325;28;20099;-69
2022/11/26 04:50:31;;;;;;;2.25;0.98;;;6.30;95.50;;;;;;5052099;28;20032;-70
2022/11/26 04:52:56;;;;;;;3.65;1.10;;;6.40;95.30;;;;;;5052807;28;20024;-69
2022/11/26 04:55:22;;;;;;;3.45;1.30;;;6.40;95.30;;;;;;5054062;28;20090;-69
2022/11/26 04:57:48;;;;;;;3.75;0.98;;;6.40;95.20;;;;;;5057002;28;20060;-69
2022/11/26 05:00:15;;;;;;;3.58;1.38;;;6.40;95.10;;;;;;5050830;28;20041;-70
2022/11/26 05:02:41;;;;;;;4.10;1.10;;;6.50;95.00;;;;;;5053750;28;20384;-69
2022/11/26 05:05:07;;;;;;;4.43;1.33;;;6.40;95.00;;;;;;5058200;28;20029;-69
2022/11/26 05:07:32;;;;;;;3.17;0.98;;;6.60;94.70;;;;;;5058282;28;20033;-69
2022/11/26 05:09:58;;;;;;;3.80;1.00;;;6.60;94.80;;;;;;5057741;28;20131;-69
2022/11/26 05:12:24;;;;;;;3.92;1.55;;;6.50;95.10;;;;;;5057155;28;20436;-69
2022/11/26 05:14:50;;;;;;;3.92;1.40;;;6.40;95.00;;;;;;5058368;28;20028;-69
2022/11/26 05:17:15;;;;;;;1.85;0.90;;;6.40;94.90;;;;;;5050234;28;20052;-70
2022/11/26 05:19:41;;;;;;;2.30;0.80;;;6.30;95.50;;;;;;5056792;28;20036;-69
2022/11/26 05:22:07;;;;;;;4.45;1.88;;;6.10;95.80;;;;;;5045877;28;20032;-69
2022/11/26 05:24:32;;;;;;;4.53;1.10;;;6.10;95.90;;;;;;5053391;28;20189;-69
2022/11/26 05:26:58;;;;;;;4.78;1.48;;;6.30;95.20;;;;;;5052671;28;20031;-69
2022/11/26 05:29:24;;;;;;;2.63;1.00;;;6.30;95.40;;;;;;5059811;28;20457;-69
2022/11/26 05:31:50;;;;;;;3.63;1.52;;;6.30;95.50;;;;;;5054870;28;20599;-70
2022/11/26 05:34:16;;;;;;;2.47;0.90;;;6.40;95.30;;;;;;5053876;28;20036;-69
2022/11/26 05:36:42;;;;;;;4.20;1.30;;;6.60;95.10;;;;;;5045995;28;20814;-69
2022/11/26 05:39:07;;;;;;;1.98;1.00;;;6.60;94.90;;;;;;5047978;28;20052;-70
2022/11/26 05:41:33;;;;;;;2.20;1.30;;;6.40;95.80;;;;;;5053743;28;20029;-69
2022/11/26 05:43:59;;;;;;;1.73;0.88;;;6.10;96.20;;;;;;5061752;28;20112;-69
2022/11/26 05:46:25;;;;;;;2.83;1.00;;;6.10;95.80;;;;;;5056384;28;20032;-69
2022/11/26 05:48:51;;;;;;;2.15;0.77;;;6.20;95.70;;;;;;5058887;28;20486;-69
2022/11/26 05:51:17;;;;;;;4.95;2.30;;;6.30;95.70;;;;;;5060084;28;20025;-69
2022/11/26 05:53:42;;;;;;;1.08;0.63;;;6.20;96.10;;;;;;5050330;28;20040;-69
2022/11/26 05:56:08;;;;;;;2.63;1.05;;;6.10;95.90;;;;;;5057316;28;20487;-69
2022/11/26 05:58:34;;;;;;;1.45;0.65;;;6.40;95.30;;;;;;5056746;28;20060;-69
2022/11/26 06:00:59;;;;;;;3.90;1.20;;;6.60;95.30;;;;;;5057227;28;20067;-69
2022/11/26 06:03:25;;;;;;;2.25;1.17;;;6.60;95.00;;;;;;5054123;28;20849;-69
2022/11/26 06:05:51;;;;;;;3.30;0.95;;;6.60;95.00;;;;;;5043174;28;20929;-69
2022/11/26 06:08:16;;;;;;;3.33;1.00;;;6.50;95.50;;;;;;5053336;28;20635;-69
2022/11/26 06:10:43;;;;;;;2.78;1.30;;;6.40;95.80;;;;;;5050110;28;20385;-69
2022/11/26 06:13:09;;;;;;;3.67;1.02;;;6.30;95.90;;;;;;5048919;28;20036;-69
2022/11/26 06:15:34;;;;;;;2.28;1.17;;;6.30;95.70;;;;;;5043164;28;20375;-70
2022/11/26 06:18:00;;;;;;;2.80;1.42;;;6.50;95.60;;;;;;5051600;28;20028;-69
2022/11/26 06:20:26;;;;;;;4.07;1.38;;;6.60;95.20;;;;;;5045299;28;20033;-69
2022/11/26 06:22:51;;;;;;;2.85;1.15;;;6.70;95.20;;;;;;5044766;28;20025;-69
2022/11/26 06:25:17;;;;;;;2.55;1.00;;;6.70;95.20;;;;;;5044243;28;20029;-69
2022/11/26 06:27:43;;;;;;;2.33;0.90;;;6.80;95.00;;;;;;5052460;28;20028;-69
2022/11/26 06:30:10;;;;;;;2.05;0.90;;;6.70;95.30;;;;;;5045509;28;20028;-69
2022/11/26 06:32:36;;;;;;;2.35;1.20;;;6.80;95.00;;;;;;5057700;28;20447;-69
2022/11/26 06:35:02;;;;;;;1.42;0.93;;;6.80;95.40;;;;;;5055883;28;20036;-69
2022/11/26 06:37:27;;;;;;;1.75;0.82;;;6.80;95.10;;;;;;5047262;28;20040;-69
2022/11/26 06:39:53;;;;;;;3.75;1.00;;;6.80;94.90;;;;;;5053077;28;20040;-69
2022/11/26 06:42:19;;;;;;;1.70;0.85;;;6.90;94.90;;;;;;5058021;28;20052;-69
2022/11/26 06:44:45;;;;;;;1.52;0.57;;;6.80;94.90;;;;;;5049674;28;20112;-69
2022/11/26 06:47:12;;;;;;;2.60;1.10;;;6.60;95.30;;;;;;5045803;28;20534;-69
2022/11/26 06:49:38;;;;;;;3.75;1.17;;;6.70;95.10;;;;;;5053148;28;20031;-69
2022/11/26 06:52:04;;;;;;;2.00;0.82;;;6.80;95.00;;;;;;5042045;28;20028;-69
2022/11/26 06:54:30;;;;;;;1.70;0.70;;;6.80;94.80;;;;;;5046269;28;20025;-69
2022/11/26 06:56:55;;;;;;;3.42;0.80;;;6.80;94.80;;;;;;5053801;28;20036;-69
2022/11/26 06:59:21;;;;;;;2.00;0.80;;;6.60;95.40;;;;;;5043673;28;20041;-69
2022/11/26 07:01:47;;;;;;;3.38;0.82;;;6.60;95.30;;;;;;5057599;28;20674;-69
2022/11/26 07:04:13;;;;;;;2.58;1.20;;;6.50;95.30;;;;;;5059854;28;20078;-69
2022/11/26 07:06:39;;;;;;;2.92;1.30;;;6.70;94.90;;;;;;5053365;28;20033;-69
2022/11/26 07:09:08;;;;;;;2.35;0.85;;;6.80;94.90;;;;;;5056349;28;20032;-69
2022/11/26 07:11:34;;;;;;;1.05;0.68;;;6.70;95.20;;;;;;5055103;28;20032;-69
2022/11/26 07:14:00;;;;;;;1.77;0.90;;;6.60;95.30;;;;;;5059374;28;20036;-70
2022/11/26 07:16:27;;;;;;;2.85;0.95;;;6.60;95.40;;;;;;5045452;28;20540;-69
2022/11/26 07:18:55;;;;;;;1.67;0.75;;;6.70;94.70;;;;;;5056339;28;20120;-69
2022/11/26 07:21:21;;;;;;;3.35;1.00;;;6.70;94.90;;;;;;5049094;28;20044;-70
2022/11/26 07:23:48;;;;;;;2.55;0.90;;;6.70;94.80;;;;;;5051571;28;20028;-69
2022/11/26 07:26:15;;;;;;;3.08;1.02;;;6.70;95.10;;;;;;5051420;28;20040;-70
2022/11/26 07:28:41;;;;;;;1.98;0.98;;;6.50;95.50;;;;;;5056024;28;20032;-70
2022/11/26 07:31:10;;;;;;;1.77;0.80;;;6.30;95.60;;;;;;5054815;28;20032;-70
2022/11/26 07:33:36;;;;;;;2.80;1.05;;;6.40;95.30;;;;;;5055993;28;20044;-70
2022/11/26 07:36:04;;;;;;;3.40;0.82;;;6.50;95.30;;;;;;5054070;28;20041;-70
2022/11/26 07:38:30;;;;;;;2.75;1.05;;;6.70;94.80;;;;;;5052683;28;20391;-70
2022/11/26 07:41:06;;;;;;;3.13;1.17;;;6.80;94.70;;;;;;5055506;28;20043;-69
2022/11/26 07:43:39;;;;;;;2.35;0.93;;;6.70;94.70;;;;;;5048458;28;20047;-68
2022/11/26 07:46:07;;;;;;;2.20;0.85;;;6.90;94.50;;;;;;5056688;28;20867;-71
2022/11/26 07:48:34;;;;;;;2.80;1.00;;;6.90;94.50;;;;;;5047751;28;20040;-69
2022/11/26 07:51:00;;;;;;;3.15;1.20;;;6.90;94.50;;;;;;5057654;28;20037;-70
2022/11/26 07:53:31;;;;;;;4.88;1.00;;;6.80;94.60;;;;;;5050444;28;20040;-70
2022/11/26 07:55:57;;;;;;;2.30;1.05;;;6.70;94.90;;;;;;5047388;28;20037;-70
2022/11/26 07:58:23;;;;;;;2.00;1.00;;;6.70;94.90;;;;;;5057732;28;20525;-70
2022/11/26 08:00:49;;;;;;;3.25;1.13;;;6.80;94.70;;;;;;5057846;28;20043;-69
2022/11/26 08:03:15;;;;;;;3.83;0.90;;;6.70;95.20;;;;;;5064119;28;20033;-69
2022/11/26 08:05:42;;;;;;;1.58;0.80;;;6.70;94.80;;;;;;5061023;28;20394;-70
2022/11/26 08:08:08;;;;;;;2.25;0.75;;;7.00;94.20;;;;;;5052871;28;20132;-70
2022/11/26 08:10:34;;;;;;;1.85;0.80;;;7.00;94.60;;;;;;5056076;28;20035;-70
2022/11/26 08:12:59;;;;;;;2.47;1.30;;;7.00;94.20;;;;;;5056692;28;20116;-70
2022/11/26 08:15:25;;;;;;;2.22;1.20;;;6.90;94.60;;;;;;5052620;28;20036;-70
2022/11/26 08:17:55;;;;;;;2.83;0.93;;;6.80;94.90;;;;;;5057780;28;20360;-70
2022/11/26 08:20:21;;;;;;;2.35;1.10;;;6.70;95.50;;;;;;5051120;28;20479;-70
2022/11/26 08:22:46;;;;;;;1.40;0.70;;;6.70;95.00;;;;;;5055334;28;20021;-70
2022/11/26 08:25:12;;;;;;;3.45;0.90;;;7.00;94.50;;;;;;5052532;28;20047;-70
2022/11/26 08:27:38;;;;;;;1.98;0.75;;;6.90;95.10;;;;;;5057435;28;20612;-70
2022/11/26 08:30:05;;;;;;;2.13;0.95;;;7.00;94.80;;;;;;5060023;28;20060;-69
2022/11/26 08:32:30;;;;;;;2.17;0.85;;;6.80;95.60;;;;;;5054709;28;20829;-70
2022/11/26 08:34:56;;;;;;;3.17;1.20;;;6.90;94.90;;;;;;5057259;28;20094;-70
2022/11/26 08:37:22;;;;;;;3.75;0.80;;;7.00;95.10;;;;;;5060103;28;20086;-70
2022/11/26 08:39:47;;;;;;;3.38;0.90;;;7.20;94.50;;;;;;5051586;28;20067;-70
2022/11/26 08:42:13;;;;;;;5.03;1.08;;;7.30;93.90;;;;;;5053857;28;21041;-70
2022/11/26 08:44:39;;;;;;;3.15;1.25;;;7.50;93.90;;;;;;5057652;28;20029;-70
2022/11/26 08:47:04;;;;;;;4.43;0.75;;;7.60;93.90;;;;;;5053158;28;20048;-70
2022/11/26 08:49:30;;;;;;;2.38;0.88;;;7.70;93.80;;;;;;5055947;28;20032;-70
2022/11/26 08:51:56;;;;;;;2.78;0.80;;;7.90;93.70;;;;;;5054175;28;20025;-70
2022/11/26 08:54:22;;;;;;;4.43;0.80;;;8.00;94.20;;;;;;5051978;28;20029;-70
2022/11/26 08:56:48;;;;;;;1.80;0.82;;;8.00;93.70;;;;;;5051852;28;20032;-70
2022/11/26 08:59:13;;;;;;;2.13;1.13;;;8.20;92.70;;;;;;5057548;28;20077;-70
2022/11/26 09:01:39;;;;;;;2.10;0.70;;;8.30;92.50;;;;;;5056839;28;20024;-70
2022/11/26 09:04:05;;;;;;;2.17;0.70;;;8.40;92.30;;;;;;5065084;28;20036;-70
2022/11/26 09:06:33;;;;;;;1.98;0.80;;;8.30;92.50;;;;;;5063841;28;21109;-70
2022/11/26 09:09:12;;;;;;;3.92;1.02;;;8.40;92.30;;;;;;5059426;28;20116;-70
2022/11/26 09:11:44;;;;;;;1.45;0.70;;;8.40;92.10;;;;;;5077277;28;20047;-71
2022/11/26 09:14:10;;;;;;;2.13;0.70;;;8.30;92.40;;;;;;5067428;28;20090;-71
2022/11/26 09:16:36;;;;;;;3.30;0.80;;;8.30;92.70;;;;;;5073686;28;20427;-72
2022/11/26 09:19:05;;;;;;;1.55;0.55;;;8.10;93.60;;;;;;5066169;28;20054;-72
2022/11/26 09:21:34;;;;;;;4.13;1.30;;;8.20;92.50;;;;;;5066936;28;20020;-71
2022/11/26 09:24:00;;;;;;;292.75;170.77;;;8.40;91.90;;;;;;5066029;28;20325;-71
2022/11/26 09:26:26;;;;;;;9.48;5.10;;;8.60;92.70;;;;;;5066558;28;20036;-71
2022/11/26 09:28:52;;;;;;;4.32;1.25;;;8.50;92.10;;;;;;5065548;28;20025;-71
2022/11/26 09:31:18;;;;;;;3.55;1.13;;;8.30;92.00;;;;;;5064673;28;20037;-71
2022/11/26 09:33:44;;;;;;;3.30;1.40;;;8.30;94.90;;;;;;5064158;28;20364;-72
2022/11/26 09:36:13;;;;;;;2.22;1.05;;;8.10;93.30;;;;;;5061362;28;20093;-71
2022/11/26 09:38:39;;;;;;;4.13;1.05;;;8.10;93.20;;;;;;5057799;28;20075;-71
2022/11/26 09:41:44;;;;;;;1.52;0.65;;;8.10;93.20;;;;;;5064434;28;20036;-71
2022/11/26 09:44:31;;;;;;;2.47;1.15;;;8.10;92.80;;;;;;5040725;28;20032;-71
2022/11/26 09:47:15;;;;;;;3.03;1.17;;;8.20;92.50;;;;;;5064676;28;20032;-71
2022/11/26 09:49:53;;;;;;;5.38;2.10;;;8.20;92.60;;;;;;5067355;28;20059;-71
2022/11/26 09:52:21;;;;;;;2.40;1.45;;;8.20;92.30;;;;;;5064544;28;20036;-71
2022/11/26 09:54:51;;;;;;;1.63;0.68;;;8.10;92.30;;;;;;5067863;28;20032;-71
2022/11/26 09:57:32;;;;;;;2.35;0.80;;;8.00;93.10;;;;;;5065593;28;20024;-71
2022/11/26 09:59:58;;;;;;;1.58;0.70;;;8.00;93.20;;;;;;5062881;28;20123;-71
2022/11/26 10:02:24;;;;;;;2.28;0.80;;;8.10;92.20;;;;;;5057270;28;20424;-71
2022/11/26 10:04:50;;;;;;;2.33;1.00;;;8.20;92.00;;;;;;5049426;28;23155;-71
2022/11/26 10:07:32;;;;;;;2.33;0.80;;;8.10;92.40;;;;;;5052212;28;20024;-71
2022/11/26 10:10:31;;;;;;;1.52;0.75;;;8.00;93.10;;;;;;5050507;28;20036;-71
2022/11/26 10:13:06;;;;;;;2.78;0.60;;;7.80;93.70;;;;;;5032782;28;20041;-71
2022/11/26 10:15:49;;;;;;;2.33;0.77;;;8.10;92.70;;;;;;5052857;28;20534;-70
2022/11/26 10:18:50;;;;;;;1.70;0.77;;;8.20;92.40;;;;;;5055534;28;20037;-70
2022/11/26 10:21:25;;;;;;;4.35;0.90;;;8.60;91.40;;;;;;5036821;28;20053;-70
2022/11/26 10:23:59;;;;;;;;;;;8.60;91.40;;;;;;5055210;28;20033;-71
2022/11/26 10:26:39;;;;;;;2.30;0.60;;;8.70;91.70;;;;;;5056340;28;19909;-71
2022/11/26 10:29:10;;;;;;;3.88;1.77;;;8.70;92.10;;;;;;5058497;28;20031;-71
2022/11/26 10:31:38;;;;;;;2.75;1.20;;;8.80;92.10;;;;;;5055013;28;20038;-71
2022/11/26 10:34:11;;;;;;;3.83;0.93;;;9.20;92.00;;;;;;5048591;28;20025;-72
2022/11/26 10:36:40;;;;;;;2.17;0.55;;;9.30;91.70;;;;;;5053096;28;20045;-72
2022/11/26 10:39:11;;;;;;;1.73;0.40;;;9.40;91.00;;;;;;5048772;28;20147;-71
2022/11/26 10:41:37;;;;;;;3.55;0.75;;;9.50;91.00;;;;;;5049870;28;20048;-71
2022/11/26 10:44:30;;;;;;;1.85;0.70;;;9.60;91.00;;;;;;5048784;28;20054;-71
2022/11/26 10:46:57;;;;;;;1.45;0.80;;;9.60;90.50;;;;;;5050744;28;20021;-72
2022/11/26 10:49:24;;;;;;;2.78;0.80;;;9.90;90.40;;;;;;5050480;28;20082;-71
2022/11/26 10:52:01;;;;;;;1.85;0.80;;;9.90;90.30;;;;;;5048923;28;20031;-71
2022/11/26 10:54:31;;;;;;;2.10;0.63;;;9.80;90.00;;;;;;5051885;28;20043;-71
2022/11/26 10:57:03;;;;;;;1.98;0.73;;;10.10;88.80;;;;;;5048009;28;20032;-71
2022/11/26 10:59:35;;;;;;;1.70;0.70;;;10.30;90.20;;;;;;5051732;28;20127;-71
2022/11/26 11:02:05;;;;;;;2.40;0.90;;;10.20;90.30;;;;;;5051467;28;20537;-71
2022/11/26 11:04:42;;;;;;;2.30;0.93;;;10.30;90.20;;;;;;5054261;28;20040;-71
2022/11/26 11:07:32;;;;;;;4.55;0.90;;;10.20;90.20;;;;;;5058830;28;20096;-72
2022/11/26 11:10:08;;;;;;;2.88;0.80;;;10.10;89.90;;;;;;5056254;28;20036;-71
2022/11/26 11:12:44;;;;;;;2.83;0.77;;;10.40;90.50;;;;;;5050192;28;20063;-72
2022/11/26 11:15:28;;;;;;;1.35;0.50;;;10.50;90.00;;;;;;5050914;28;20452;-72
2022/11/26 11:18:17;;;;;;;2.30;0.85;;;10.50;89.70;;;;;;5051714;28;20072;-72
2022/11/26 11:20:55;;;;;;;2.90;1.00;;;10.70;89.70;;;;;;5058350;28;20162;-72
2022/11/26 11:23:26;;;;;;;2.42;0.65;;;10.80;88.00;;;;;;5046379;28;20470;-72
2022/11/26 11:26:02;;;;;;;1.67;0.90;;;10.80;88.30;;;;;;5061921;28;20036;-74
2022/11/26 11:28:30;;;;;;;51.05;29.52;;;10.90;89.70;;;;;;5051637;28;20538;-74
2022/11/26 11:31:01;;;;;;;10.95;6.72;;;11.30;86.40;;;;;;5048680;28;20029;-74
2022/11/26 11:33:28;;;;;;;4.07;1.25;;;11.10;87.30;;;;;;5051755;28;20028;-74
2022/11/26 11:36:10;;;;;;;122.30;60.53;;;11.20;87.30;;;;;;5044724;28;20021;-74
2022/11/26 11:38:50;;;;;;;11.05;4.97;;;11.30;88.40;;;;;;5052103;28;20077;-74
2022/11/26 11:41:40;;;;;;;141.00;68.20;;;11.40;88.40;;;;;;5047802;28;20458;-74
2022/11/26 11:44:19;;;;;;;13.73;7.65;;;11.50;89.10;;;;;;5040928;28;20041;-73
2022/11/26 11:46:45;;;;;;;232.23;119.88;;;11.50;87.50;;;;;;5049152;28;20035;-73
2022/11/26 11:49:35;;;;;;;252.68;132.45;;;11.60;87.20;;;;;;5051126;28;20511;-74
2022/11/26 11:52:30;;;;;;;18.95;10.18;;;11.90;86.30;;;;;;5055001;28;20025;-73
2022/11/26 11:55:15;;;;;;;8.40;5.00;;;11.80;84.20;;;;;;5042162;28;20051;-72
2022/11/26 11:58:05;;;;;;;5.43;2.65;;;11.80;86.40;;;;;;5050501;28;20056;-72
2022/11/26 12:00:59;;;;;;;3.47;1.33;;;11.90;87.10;;;;;;5042714;28;20278;-72
2022/11/26 12:03:37;;;;;;;1.70;0.60;;;12.50;85.70;;;;;;5046309;28;20044;-72
2022/11/26 12:06:27;;;;;;;3.95;0.80;;;12.10;84.10;;;;;;5043789;28;20043;-71
2022/11/26 12:09:08;;;;;;;2.08;0.90;;;12.00;84.80;;;;;;5052620;28;20029;-71
2022/11/26 12:11:52;;;;;;;1.50;0.80;;;11.80;84.80;;;;;;5058156;28;20494;-71
2022/11/26 12:14:21;;;;;;;2.45;0.95;;;11.90;84.90;;;;;;5056238;28;20387;-69
2022/11/26 12:16:53;;;;;;;2.45;0.75;;;11.90;84.10;;;;;;5066759;28;20036;-70
2022/11/26 12:19:21;;;;;;;3.35;1.00;;;11.90;84.60;;;;;;5063603;28;20086;-70
2022/11/26 12:21:53;;;;;;;2.13;0.82;;;12.10;85.60;;;;;;5062820;28;20044;-71
2022/11/26 12:24:55;;;;;;;2.10;0.90;;;12.10;85.90;;;;;;5061403;28;20021;-72
2022/11/26 12:27:23;;;;;;;3.65;1.00;;;12.10;85.90;;;;;;5062802;28;20085;-72
2022/11/26 12:29:55;;;;;;;2.17;0.88;;;12.10;85.70;;;;;;5063270;28;20025;-72
2022/11/26 12:32:30;;;;;;;3.22;1.10;;;12.20;86.10;;;;;;5048949;28;20130;-73
2022/11/26 12:35:00;;;;;;;4.28;0.73;;;12.30;86.20;;;;;;5056921;28;20082;-73
2022/11/26 12:37:31;;;;;;;2.47;0.70;;;12.20;83.20;;;;;;5061984;28;20039;-73
2022/11/26 12:40:15;;;;;;;2.42;0.90;;;12.40;83.50;;;;;;5066545;28;20719;-73
2022/11/26 12:43:10;;;;;;;1.50;0.70;;;12.40;83.80;;;;;;5066873;28;20028;-73
2022/11/26 12:45:57;;;;;;;2.95;0.93;;;12.30;83.50;;;;;;5067323;28;20082;-73
2022/11/26 12:49:16;;;;;;;1.52;0.70;;;12.30;84.00;;;;;;5064262;28;20042;-72
2022/11/26 12:51:44;;;;;;;1.42;0.70;;;12.30;83.50;;;;;;5045782;28;20037;-73
2022/11/26 12:54:13;;;;;;;2.80;1.13;;;12.50;83.70;;;;;;5068394;28;20582;-73
2022/11/26 12:57:13;;;;;;;2.97;0.77;;;12.60;83.40;;;;;;5065529;28;20033;-72
2022/11/26 13:00:05;;;;;;;3.08;0.82;;;12.60;83.30;;;;;;5063480;28;20394;-72
2022/11/26 13:02:44;;;;;;;1.88;0.93;;;12.60;82.10;;;;;;5069275;28;20024;-73
2022/11/26 13:05:41;;;;;;;2.38;0.85;;;12.50;82.10;;;;;;5060927;28;20034;-72
2022/11/26 13:08:31;;;;;;;1.15;0.52;;;12.40;82.70;;;;;;5069350;28;20028;-73
2022/11/26 13:10:56;;;;;;;5.47;2.28;;;12.50;82.30;;;;;;5063761;28;20029;-72
2022/11/26 13:13:35;;;;;;;2.35;0.90;;;12.60;82.00;;;;;;5066728;28;20671;-72